createdAt,value
2018-02-03T00:02:02.445Z,86.15
2018-02-03T00:04:32.398Z,86.13
2018-02-03T00:07:01.723Z,86.77
2018-02-03T00:09:30.939Z,86.55
2018-02-03T00:12:00.984Z,86.90
2018-02-03T00:14:30.197Z,87.07
2018-02-03T00:16:59.453Z,87.19
2018-02-03T00:19:29.517Z,87.15
2018-02-03T00:21:58.894Z,87.58
2018-02-03T00:24:28.405Z,87.88
2018-02-03T00:26:57.617Z,87.61
2018-02-03T00:29:26.867Z,87.46
2018-02-03T00:31:56.765Z,87.26
2018-02-03T00:34:26.166Z,87.50
2018-02-03T00:36:55.383Z,87.62
2018-02-03T00:39:24.580Z,87.34
2018-02-03T00:41:54.550Z,87.73
2018-02-03T00:44:23.799Z,87.66
2018-02-03T00:46:52.982Z,87.13
2018-02-03T00:49:22.184Z,87.39
2018-02-03T00:51:52.173Z,87.72
2018-02-03T00:54:21.385Z,87.74
2018-02-03T00:56:50.606Z,87.94
2018-02-03T00:59:20.567Z,88.14
2018-02-03T01:01:49.811Z,88.08
2018-02-03T01:04:18.999Z,87.59
2018-02-03T01:06:48.218Z,87.30
2018-02-03T01:09:17.421Z,87.55
2018-02-03T01:11:47.410Z,87.64
2018-02-03T01:14:16.602Z,86.58
2018-02-03T01:16:45.859Z,86.75
2018-02-03T01:19:15.095Z,86.16
2018-02-03T01:21:44.302Z,86.34
2018-02-03T01:24:14.372Z,85.94
2018-02-03T01:26:43.690Z,85.75
2018-02-03T01:29:12.899Z,85.81
2018-02-03T01:31:42.125Z,85.69
2018-02-03T01:34:12.083Z,85.74
2018-02-03T01:36:41.287Z,85.90
2018-02-03T01:39:10.582Z,85.39
2018-02-03T01:41:39.871Z,85.50
2018-02-03T01:44:09.078Z,85.51
2018-02-03T01:46:38.323Z,85.58
2018-02-03T01:49:07.562Z,86.10
2018-02-03T01:51:36.769Z,86.19
2018-02-03T01:54:06.070Z,86.09
2018-02-03T01:56:35.267Z,86.31
2018-02-03T01:59:04.479Z,86.33
2018-02-03T02:01:33.714Z,85.91
2018-02-03T02:04:03.694Z,85.56
2018-02-03T02:06:32.914Z,85.80
2018-02-03T02:09:02.920Z,85.88
2018-02-03T02:11:32.135Z,86.11
2018-02-03T02:14:02.146Z,86.77
2018-02-03T02:16:31.346Z,86.71
2018-02-03T02:19:00.695Z,86.49
2018-02-03T02:21:29.978Z,86.64
2018-02-03T02:23:59.366Z,86.36
2018-02-03T02:26:28.618Z,86.66
2018-02-03T02:28:57.877Z,86.75
2018-02-03T02:31:27.891Z,86.78
2018-02-03T02:33:57.105Z,86.49
2018-02-03T02:36:26.324Z,86.11
2018-02-03T02:38:55.557Z,86.34
2018-02-03T02:41:24.766Z,86.64
2018-02-03T02:43:54.760Z,86.73
2018-02-03T02:46:23.979Z,86.55
2018-02-03T02:48:53.941Z,86.67
2018-02-03T02:51:23.157Z,86.60
2018-02-03T02:53:52.354Z,86.84
2018-02-03T02:56:21.557Z,86.40
2018-02-03T02:58:50.762Z,86.10
2018-02-03T03:01:19.971Z,86.33
2018-02-03T03:03:49.221Z,86.79
2018-02-03T03:06:18.410Z,86.67
2018-02-03T03:08:47.650Z,86.71
2018-02-03T03:11:16.849Z,86.68
2018-02-03T03:13:46.047Z,86.34
2018-02-03T03:16:15.242Z,86.16
2018-02-03T03:18:44.516Z,86.47
2018-02-03T03:21:14.522Z,86.26
2018-02-03T03:23:43.818Z,86.58
2018-02-03T03:26:13.007Z,87.00
2018-02-03T03:28:42.214Z,87.07
2018-02-03T03:31:11.409Z,86.91
2018-02-03T03:33:40.656Z,87.28
2018-02-03T03:36:09.911Z,86.56
2018-02-03T03:38:39.121Z,86.35
2018-02-03T03:41:08.519Z,86.46
2018-02-03T03:43:37.746Z,86.94
2018-02-03T03:46:06.946Z,87.11
2018-02-03T03:48:36.944Z,86.71
2018-02-03T03:51:06.208Z,86.81
2018-02-03T03:53:35.474Z,87.50
2018-02-03T03:56:05.474Z,88.39
2018-02-03T03:58:34.723Z,88.58
2018-02-03T04:01:03.933Z,88.86
2018-02-03T04:03:33.146Z,88.34
2018-02-03T04:06:02.430Z,88.87
2018-02-03T04:08:31.634Z,88.87
2018-02-03T04:11:00.861Z,89.05
2018-02-03T04:13:30.064Z,89.23
2018-02-03T04:16:00.011Z,89.08
2018-02-03T04:18:29.243Z,88.72
2018-02-03T04:20:59.979Z,89.00
2018-02-03T04:23:29.252Z,88.93
2018-02-03T04:25:58.418Z,88.94
2018-02-03T04:28:28.455Z,88.88
2018-02-03T04:30:57.766Z,88.79
2018-02-03T04:33:26.968Z,87.79
2018-02-03T04:35:56.154Z,88.12
2018-02-03T04:38:25.378Z,88.20
2018-02-03T04:40:54.571Z,88.25
2018-02-03T04:43:23.922Z,88.23
2018-02-03T04:45:54.030Z,88.13
2018-02-03T04:48:24.081Z,87.77
2018-02-03T04:50:53.366Z,87.97
2018-02-03T04:53:22.566Z,87.94
2018-02-03T04:55:51.772Z,87.96
2018-02-03T04:58:20.973Z,88.02
2018-02-03T05:00:50.258Z,87.98
2018-02-03T05:03:20.224Z,87.83
2018-02-03T05:05:49.455Z,87.12
2018-02-03T05:08:18.708Z,87.42
2018-02-03T05:10:48.060Z,87.83
2018-02-03T05:13:18.251Z,87.97
2018-02-03T05:15:47.454Z,88.07
2018-02-03T05:18:16.652Z,88.05
2018-02-03T05:20:45.918Z,88.02
2018-02-03T05:23:15.188Z,87.94
2018-02-03T05:25:44.452Z,88.11
2018-02-03T05:28:13.647Z,87.92
2018-02-03T05:30:44.373Z,87.78
2018-02-03T05:33:13.660Z,87.42
2018-02-03T05:35:42.866Z,86.97
2018-02-03T05:38:13.047Z,87.05
2018-02-03T05:40:42.278Z,87.17
2018-02-03T05:43:11.490Z,87.30
2018-02-03T05:45:40.687Z,87.52
2018-02-03T05:48:09.896Z,87.63
2018-02-03T05:50:39.104Z,87.63
2018-02-03T05:53:09.091Z,87.47
2018-02-03T05:55:38.291Z,87.78
2018-02-03T05:58:07.486Z,87.59
2018-02-03T06:00:36.690Z,87.28
2018-02-03T06:03:05.895Z,87.34
2018-02-03T06:05:35.123Z,87.44
2018-02-03T06:08:04.306Z,87.51
2018-02-03T06:10:34.287Z,87.40
2018-02-03T06:13:03.491Z,87.25
2018-02-03T06:15:32.711Z,87.29
2018-02-03T06:18:01.947Z,87.26
2018-02-03T06:20:31.177Z,87.27
2018-02-03T06:23:00.398Z,87.09
2018-02-03T06:25:30.505Z,86.42
2018-02-03T06:27:59.716Z,86.72
2018-02-03T06:30:29.817Z,87.05
2018-02-03T06:32:59.058Z,87.12
2018-02-03T06:35:28.286Z,87.36
2018-02-03T06:37:57.513Z,87.49
2018-02-03T06:40:26.727Z,87.75
2018-02-03T06:42:55.941Z,87.89
2018-02-03T06:45:26.098Z,87.93
2018-02-03T06:47:55.298Z,87.90
2018-02-03T06:50:24.540Z,87.99
2018-02-03T06:52:54.493Z,88.17
2018-02-03T06:55:23.729Z,88.26
2018-02-03T06:57:52.958Z,88.29
2018-02-03T07:00:22.945Z,88.30
2018-02-03T07:02:52.236Z,88.26
2018-02-03T07:05:21.413Z,88.19
2018-02-03T07:07:50.630Z,88.29
2018-02-03T07:10:19.932Z,88.36
2018-02-03T07:12:49.178Z,88.45
2018-02-03T07:15:18.462Z,88.35
2018-02-03T07:17:48.444Z,88.38
2018-02-03T07:20:17.811Z,88.30
2018-02-03T07:22:47.039Z,88.23
2018-02-03T07:25:16.299Z,88.18
2018-02-03T07:27:45.539Z,88.03
2018-02-03T07:30:14.788Z,88.21
2018-02-03T07:32:43.981Z,88.32
2018-02-03T07:35:14.004Z,88.22
2018-02-03T07:37:43.223Z,88.02
2018-02-03T07:40:12.449Z,88.04
2018-02-03T07:42:41.721Z,88.03
2018-02-03T07:45:10.933Z,88.14
2018-02-03T07:47:40.130Z,88.13
2018-02-03T07:50:09.338Z,88.23
2018-02-03T07:52:38.595Z,87.91
2018-02-03T07:55:07.793Z,87.93
2018-02-03T07:57:37.008Z,87.98
2018-02-03T08:00:06.210Z,87.92
2018-02-03T08:02:35.471Z,88.01
2018-02-03T08:05:04.765Z,87.96
2018-02-03T08:07:34.258Z,87.93
2018-02-03T08:10:04.365Z,87.86
2018-02-03T08:12:33.641Z,87.77
2018-02-03T08:15:02.871Z,87.64
2018-02-03T08:17:32.158Z,87.57
2018-02-03T08:20:01.402Z,87.70
2018-02-03T08:22:30.671Z,87.58
2018-02-03T08:25:00.723Z,87.54
2018-02-03T08:27:29.909Z,87.39
2018-02-03T08:29:59.147Z,87.57
2018-02-03T08:32:28.396Z,87.61
2018-02-03T08:34:57.837Z,87.84
2018-02-03T08:37:27.004Z,87.68
2018-02-03T08:39:56.242Z,87.19
2018-02-03T08:42:26.355Z,87.23
2018-02-03T08:44:55.577Z,87.21
2018-02-03T08:47:24.810Z,86.85
2018-02-03T08:49:54.066Z,86.53
2018-02-03T08:52:23.351Z,86.35
2018-02-03T08:54:52.856Z,85.72
2018-02-03T08:57:22.224Z,85.66
2018-02-03T08:59:51.482Z,85.51
2018-02-03T09:02:20.870Z,85.32
2018-02-03T09:04:50.230Z,85.76
2018-02-03T09:07:19.658Z,85.62
2018-02-03T09:09:49.014Z,85.92
2018-02-03T09:12:19.160Z,85.85
2018-02-03T09:14:48.513Z,85.66
2018-02-03T09:17:19.700Z,85.52
2018-02-03T09:19:49.358Z,85.40
2018-02-03T09:22:18.727Z,85.43
2018-02-03T09:24:48.150Z,85.32
2018-02-03T09:27:17.612Z,85.14
2018-02-03T09:29:47.878Z,85.21
2018-02-03T09:32:17.220Z,84.69
2018-02-03T09:34:47.451Z,85.12
2018-02-03T09:37:17.731Z,84.97
2018-02-03T09:39:47.058Z,84.91
2018-02-03T09:42:16.496Z,84.84
2018-02-03T09:44:45.817Z,84.50
2018-02-03T09:47:15.102Z,84.06
2018-02-03T09:49:44.551Z,83.96
2018-02-03T09:52:13.972Z,83.65
2018-02-03T09:54:44.053Z,83.89
2018-02-03T09:57:13.372Z,83.60
2018-02-03T09:59:43.511Z,82.78
2018-02-03T10:02:13.507Z,83.16
2018-02-03T10:04:42.815Z,82.34
2018-02-03T10:07:13.070Z,81.65
2018-02-03T10:09:42.674Z,81.42
2018-02-03T10:12:11.932Z,81.39
2018-02-03T10:14:41.139Z,81.54
2018-02-03T10:17:11.270Z,82.07
2018-02-03T10:19:41.291Z,81.60
2018-02-03T10:22:10.650Z,80.97
2018-02-03T10:24:40.906Z,80.84
2018-02-03T10:27:10.294Z,80.28
2018-02-03T10:29:39.594Z,79.70
2018-02-03T10:32:09.599Z,80.56
2018-02-03T10:34:39.618Z,79.89
2018-02-03T10:37:09.655Z,79.69
2018-02-03T10:39:39.041Z,78.84
2018-02-03T10:42:08.312Z,80.36
2018-02-03T10:44:37.568Z,79.34
2018-02-03T10:47:07.559Z,80.04
2018-02-03T10:49:37.554Z,79.42
2018-02-03T10:52:07.004Z,79.55
2018-02-03T10:54:36.316Z,79.27
2018-02-03T10:57:05.741Z,79.39
2018-02-03T10:59:35.021Z,79.72
2018-02-03T11:02:04.278Z,78.34
2018-02-03T11:04:33.501Z,77.70
2018-02-03T11:07:03.520Z,79.14
2018-02-03T11:09:32.722Z,78.94
2018-02-03T11:12:02.145Z,78.87
2018-02-03T11:14:31.334Z,78.83
2018-02-03T11:17:00.535Z,78.46
2018-02-03T11:19:29.791Z,78.09
2018-02-03T11:21:58.979Z,78.08
2018-02-03T11:24:28.972Z,78.84
2018-02-03T11:26:58.214Z,78.14
2018-02-03T11:29:28.258Z,75.76
2018-02-03T11:31:57.456Z,77.74
2018-02-03T11:34:27.310Z,77.37
2018-02-03T11:36:56.527Z,77.32
2018-02-03T11:39:25.753Z,76.42
2018-02-03T11:41:54.942Z,76.88
2018-02-03T11:44:24.164Z,77.15
2018-02-03T11:46:53.435Z,77.93
2018-02-03T11:49:23.447Z,78.34
2018-02-03T11:51:53.448Z,78.08
2018-02-03T11:54:22.623Z,76.77
2018-02-03T11:56:51.905Z,75.81
2018-02-03T11:59:21.118Z,76.66
2018-02-03T12:01:50.353Z,76.24
2018-02-03T12:04:19.572Z,76.73
2018-02-03T12:06:48.778Z,76.17
2018-02-03T12:09:17.967Z,75.61
2018-02-03T12:11:47.206Z,75.13
2018-02-03T12:14:16.466Z,74.10
2018-02-03T12:16:45.829Z,74.18
2018-02-03T12:19:15.063Z,73.15
2018-02-03T12:21:44.261Z,72.76
2018-02-03T12:24:13.448Z,72.39
2018-02-03T12:26:42.659Z,71.51
2018-02-03T12:29:11.923Z,71.63
2018-02-03T12:31:41.907Z,71.50
2018-02-03T12:34:11.120Z,71.31
2018-02-03T12:36:41.183Z,72.68
2018-02-03T12:39:10.394Z,71.25
2018-02-03T12:41:39.580Z,71.72
2018-02-03T12:44:08.883Z,71.22
2018-02-03T12:46:38.160Z,72.32
2018-02-03T12:49:07.378Z,71.74
2018-02-03T12:51:36.624Z,71.35
2018-02-03T12:54:05.841Z,71.69
2018-02-03T12:56:35.109Z,70.34
2018-02-03T12:59:05.122Z,71.42
2018-02-03T13:01:34.359Z,71.03
2018-02-03T13:04:03.548Z,71.00
2018-02-03T13:06:33.574Z,69.53
2018-02-03T13:09:02.869Z,70.69
2018-02-03T13:11:32.133Z,69.54
2018-02-03T13:14:01.330Z,70.51
2018-02-03T13:16:30.611Z,70.02
2018-02-03T13:19:00.610Z,70.18
2018-02-03T13:21:29.807Z,71.27
2018-02-03T13:23:59.298Z,71.14
2018-02-03T13:26:28.507Z,70.17
2018-02-03T13:28:57.794Z,70.71
2018-02-03T13:31:26.992Z,70.97
2018-02-03T13:33:56.206Z,70.22
2018-02-03T13:36:25.419Z,70.77
2018-02-03T13:38:55.444Z,71.01
2018-02-03T13:41:24.743Z,71.39
2018-02-03T13:43:53.941Z,70.52
2018-02-03T13:46:23.214Z,71.06
2018-02-03T13:48:52.426Z,73.83
2018-02-03T13:51:21.679Z,75.25
2018-02-03T13:53:51.645Z,76.89
2018-02-03T13:56:21.002Z,78.44
2018-02-03T13:58:50.201Z,77.86
2018-02-03T14:01:19.471Z,78.47
2018-02-03T14:03:49.526Z,79.05
2018-02-03T14:06:18.864Z,79.27
2018-02-03T14:08:48.082Z,80.08
2018-02-03T14:11:17.318Z,79.86
2018-02-03T14:13:46.794Z,79.90
2018-02-03T14:16:16.053Z,78.41
2018-02-03T14:18:46.150Z,78.76
2018-02-03T14:21:15.570Z,79.13
2018-02-03T14:23:50.344Z,78.74
2018-02-03T14:26:19.749Z,79.07
2018-02-03T14:28:49.833Z,78.57
2018-02-03T14:31:19.049Z,77.39
2018-02-03T14:33:48.547Z,77.09
2018-02-03T14:36:17.751Z,76.97
2018-02-03T14:38:46.983Z,76.33
2018-02-03T14:41:16.182Z,76.69
2018-02-03T14:43:45.420Z,76.67
2018-02-03T14:46:14.644Z,76.70
2018-02-03T14:48:44.638Z,76.41
2018-02-03T14:51:14.042Z,76.36
2018-02-03T14:53:43.548Z,76.16
2018-02-03T14:56:13.581Z,75.56
2018-02-03T14:58:43.624Z,75.19
2018-02-03T15:01:13.784Z,74.44
2018-02-03T15:03:42.981Z,74.56
2018-02-03T15:06:12.691Z,74.57
2018-02-03T15:08:41.953Z,74.10
2018-02-03T15:11:11.130Z,73.29
2018-02-03T15:13:41.107Z,73.07
2018-02-03T15:16:10.629Z,73.14
2018-02-03T15:18:39.854Z,72.82
2018-02-03T15:21:09.835Z,73.72
2018-02-03T15:23:39.044Z,74.10
2018-02-03T15:26:09.791Z,74.46
2018-02-03T15:28:39.833Z,74.55
2018-02-03T15:31:09.056Z,74.88
2018-02-03T15:33:38.251Z,75.28
2018-02-03T15:36:07.501Z,75.52
2018-02-03T15:38:37.470Z,75.78
2018-02-03T15:41:06.772Z,76.04
2018-02-03T15:43:35.977Z,76.27
2018-02-03T15:46:05.343Z,76.41
2018-02-03T15:48:34.607Z,76.97
2018-02-03T15:51:04.636Z,77.82
2018-02-03T15:53:34.906Z,78.69
2018-02-03T15:56:04.119Z,79.33
2018-02-03T15:58:33.457Z,79.19
2018-02-03T16:01:02.938Z,79.79
2018-02-03T16:03:32.166Z,79.58
2018-02-03T16:06:02.159Z,80.71
2018-02-03T16:08:32.198Z,81.17
2018-02-03T16:11:01.448Z,81.41
2018-02-03T16:13:30.681Z,81.48
2018-02-03T16:16:00.819Z,81.72
2018-02-03T16:18:30.019Z,81.69
2018-02-03T16:20:59.270Z,81.82
2018-02-03T16:23:28.502Z,81.85
2018-02-03T16:25:58.509Z,81.77
2018-02-03T16:28:28.564Z,81.86
2018-02-03T16:30:57.793Z,82.04
2018-02-03T16:33:27.059Z,81.83
2018-02-03T16:35:56.288Z,82.06
2018-02-03T16:38:25.553Z,82.22
2018-02-03T16:40:54.891Z,81.94
2018-02-03T16:43:24.196Z,81.91
2018-02-03T16:45:53.501Z,81.90
2018-02-03T16:48:22.733Z,81.99
2018-02-03T16:50:51.938Z,81.67
2018-02-03T16:53:21.177Z,81.88
2018-02-03T16:55:50.403Z,82.42
2018-02-03T16:58:20.710Z,82.49
2018-02-03T17:00:49.928Z,82.99
2018-02-03T17:03:19.999Z,82.75
2018-02-03T17:05:49.211Z,83.51
2018-02-03T17:08:18.631Z,83.73
2018-02-03T17:10:48.631Z,83.61
2018-02-03T17:13:17.911Z,84.31
2018-02-03T17:15:47.148Z,84.17
2018-02-03T17:18:17.169Z,84.51
2018-02-03T17:20:46.601Z,84.32
2018-02-03T17:23:15.805Z,84.38
2018-02-03T17:25:45.044Z,84.54
2018-02-03T17:28:14.287Z,84.52
2018-02-03T17:30:43.527Z,84.45
2018-02-03T17:33:12.730Z,83.98
2018-02-03T17:35:41.980Z,84.28
2018-02-03T17:38:17.627Z,84.56
2018-02-03T17:40:46.962Z,84.55
2018-02-03T17:43:16.156Z,84.49
2018-02-03T17:45:50.813Z,84.69
2018-02-03T17:48:20.020Z,84.31
2018-02-03T17:50:49.207Z,84.37
2018-02-03T17:53:18.427Z,84.54
2018-02-03T17:55:53.843Z,84.36
2018-02-03T17:58:23.214Z,84.66
2018-02-03T18:00:52.430Z,84.74
2018-02-03T18:03:21.693Z,84.57
2018-02-03T18:05:50.908Z,84.42
2018-02-03T18:08:20.135Z,84.30
2018-02-03T18:10:49.384Z,84.41
2018-02-03T18:13:18.637Z,84.38
2018-02-03T18:15:47.903Z,84.16
2018-02-03T18:18:17.144Z,83.86
2018-02-03T18:20:47.167Z,83.85
2018-02-03T18:23:16.387Z,84.07
2018-02-03T18:25:45.655Z,84.14
2018-02-03T18:28:14.882Z,84.12
2018-02-03T18:30:44.151Z,84.09
2018-02-03T18:33:13.361Z,84.10
2018-02-03T18:35:43.383Z,84.53
2018-02-03T18:38:12.689Z,84.38
2018-02-03T18:40:41.862Z,84.20
2018-02-03T18:43:11.083Z,84.18
2018-02-03T18:45:46.125Z,84.21
2018-02-03T18:48:15.339Z,84.49
2018-02-03T18:50:45.327Z,84.06
2018-02-03T18:53:16.263Z,84.01
2018-02-03T18:55:46.255Z,84.09
2018-02-03T18:58:15.474Z,84.57
2018-02-03T19:00:45.478Z,84.11
2018-02-03T19:03:14.702Z,84.23
2018-02-03T19:05:43.923Z,84.18
2018-02-03T19:08:13.146Z,84.11
2018-02-03T19:10:42.500Z,84.26
2018-02-03T19:13:11.747Z,84.41
2018-02-03T19:15:40.968Z,84.67
2018-02-03T19:18:10.189Z,84.91
2018-02-03T19:20:39.422Z,84.81
2018-02-03T19:23:08.783Z,84.70
2018-02-03T19:25:38.773Z,84.87
2018-02-03T19:30:43.279Z,84.94
2018-02-03T19:33:12.508Z,84.67
2018-02-03T19:35:41.731Z,84.92
2018-02-03T19:38:11.729Z,84.86
2018-02-03T19:40:40.914Z,85.14
2018-02-03T19:43:10.959Z,85.14
2018-02-03T19:45:40.170Z,85.35
2018-02-03T19:48:09.444Z,85.46
2018-02-03T19:50:39.424Z,85.54
2018-02-03T19:53:08.755Z,85.75
2018-02-03T19:55:37.956Z,85.78
2018-02-03T19:58:07.961Z,85.48
2018-02-03T20:00:37.987Z,85.55
2018-02-03T20:03:07.330Z,85.23
2018-02-03T20:05:36.553Z,85.44
2018-02-03T20:08:06.174Z,85.53
2018-02-03T20:10:35.367Z,85.36
2018-02-03T20:13:04.595Z,85.39
2018-02-03T20:15:34.744Z,85.41
2018-02-03T20:18:03.972Z,85.54
2018-02-03T20:20:33.203Z,85.70
2018-02-03T20:23:03.232Z,85.70
2018-02-03T20:25:33.239Z,85.73
2018-02-03T20:28:02.528Z,86.04
2018-02-03T20:30:31.791Z,85.96
2018-02-03T20:33:01.052Z,86.01
2018-02-03T20:35:31.249Z,85.77
2018-02-03T20:38:00.516Z,85.65
2018-02-03T20:40:29.751Z,85.90
2018-02-03T20:42:59.759Z,85.96
2018-02-03T20:45:29.012Z,85.99
2018-02-03T20:47:58.222Z,86.17
2018-02-03T20:50:27.434Z,86.03
2018-02-03T20:52:56.694Z,86.08
2018-02-03T20:55:25.908Z,86.87
2018-02-03T20:57:55.227Z,86.00
2018-02-03T21:00:24.471Z,87.12
2018-02-03T21:02:53.796Z,88.21
2018-02-03T21:05:23.803Z,88.99
2018-02-03T21:07:53.087Z,89.28
2018-02-03T21:10:23.064Z,89.53
2018-02-03T21:12:52.344Z,90.44
2018-02-03T21:15:21.630Z,91.25
2018-02-03T21:17:50.869Z,91.54
2018-02-03T21:20:20.945Z,91.91
2018-02-03T21:22:50.177Z,91.85
2018-02-03T21:25:20.213Z,91.33
2018-02-03T21:27:49.588Z,91.57
2018-02-03T21:30:18.835Z,92.09
2018-02-03T21:32:48.059Z,91.53
2018-02-03T21:35:17.327Z,91.63
2018-02-03T21:37:47.551Z,91.36
2018-02-03T21:40:16.834Z,91.06
2018-02-03T21:42:46.827Z,91.28
2018-02-03T21:45:16.075Z,91.91
2018-02-03T21:47:45.402Z,92.10
2018-02-03T21:50:14.627Z,92.01
2018-02-03T21:52:43.852Z,92.10
2018-02-03T21:55:13.827Z,92.23
2018-02-03T21:57:43.164Z,92.04
2018-02-03T22:00:13.163Z,92.24
2018-02-03T22:02:42.390Z,90.77
2018-02-03T22:05:11.919Z,90.45
2018-02-03T22:07:41.156Z,90.49
2018-02-03T22:10:12.026Z,90.38
2018-02-03T22:12:41.466Z,88.63
2018-02-03T22:15:10.666Z,88.34
2018-02-03T22:17:40.039Z,88.62
2018-02-03T22:20:09.273Z,88.65
2018-02-03T22:22:38.492Z,89.36
2018-02-03T22:25:09.250Z,89.72
2018-02-03T22:27:39.260Z,89.76
2018-02-03T22:30:09.280Z,89.84
2018-02-03T22:32:39.254Z,89.68
2018-02-03T22:35:08.530Z,90.02
2018-02-03T22:37:37.719Z,90.48
2018-02-03T22:40:07.141Z,91.03
2018-02-03T22:42:36.329Z,91.37
2018-02-03T22:45:05.535Z,91.70
2018-02-03T22:47:34.785Z,91.86
2018-02-03T22:50:04.779Z,91.81
2018-02-03T22:52:33.985Z,92.09
2018-02-03T22:55:04.037Z,91.38
2018-02-03T22:57:33.346Z,91.52
2018-02-03T23:00:02.632Z,91.40
2018-02-03T23:02:37.509Z,91.40
2018-02-03T23:05:06.707Z,90.85
2018-02-03T23:07:37.184Z,90.59
2018-02-03T23:10:06.388Z,90.26
2018-02-03T23:12:35.639Z,89.90
2018-02-03T23:15:04.874Z,89.54
2018-02-03T23:17:34.097Z,89.01
2018-02-03T23:20:04.146Z,89.33
2018-02-03T23:22:33.391Z,89.13
2018-02-03T23:25:02.654Z,89.19
2018-02-03T23:27:31.867Z,88.54
2018-02-03T23:30:01.131Z,88.56
2018-02-03T23:32:30.366Z,88.04
2018-02-03T23:34:59.573Z,87.14
2018-02-03T23:37:28.830Z,86.79
2018-02-03T23:39:58.290Z,85.63
2018-02-03T23:42:27.527Z,86.79
2018-02-03T23:44:56.719Z,86.65
2018-02-03T23:47:25.957Z,86.66
2018-02-03T23:49:55.923Z,87.38
2018-02-03T23:52:25.163Z,87.63
2018-02-03T23:54:55.182Z,88.63
2018-02-03T23:57:24.388Z,89.18
2018-02-03T23:59:54.389Z,89.03
